WEATHER DATA

YESTERDAY
Time Temp. Dewp. Hum. Bar. 1h Prec. 24h Prec.
00:01 25.6 17.5 61 1018.8 0.0000 0.0000
00:11 25.5 17.4 61 1018.8 0.0000 0.0000
00:31 25.3 17.5 62 1018.8 0.0000 0.0000
00:42 25.1 17.6 63 1018.7 0.0000 0.0000
00:51 25 17.7 64 1018.7 0.0000 0.0000
01:01 24.9 17.6 64 1018.8 0.0000 0.0000
01:12 24.7 17.4 64 1018.7 0.0000 0.0000
01:22 24.6 17.6 65 1018.6 0.0000 0.0000
01:32 24.5 17.7 66 1018.6 0.0000 0.0000
01:42 24.3 17.8 67 1018.5 0.0000 0.0000
01:52 24.3 17.8 67 1018.5 0.0000 0.0000
02:02 24.2 17.9 68 1018.5 0.0000 0.0000
02:12 24.1 18.1 69 1018.4 0.0000 0.0000
02:22 24.1 18.3 70 1018.6 0.0000 0.0000
02:32 24.1 18.1 69 1018.6 0.0000 0.0000
02:42 24 18.2 70 1018.6 0.0000 0.0000
02:52 23.8 18 70 1018.5 0.0000 0.0000
03:03 23.7 18.1 71 1018.6 0.0000 0.0000
03:12 23.6 18 71 1018.5 0.0000 0.0000
03:22 23.5 18.2 72 1018.6 0.0000 0.0000
03:33 23.5 18.2 72 1018.6 0.0000 0.0000
03:43 23.4 18.1 72 1018.5 0.0000 0.0000
03:53 23.4 18.3 73 1018.8 0.0000 0.0000
04:03 23.2 18.1 73 1018.6 0.0000 0.0000
04:13 23.2 18.1 73 1018.7 0.0000 0.0000
04:23 23.1 18.2 74 1018.6 0.0000 0.0000
04:33 23.1 18.2 74 1018.6 0.0000 0.0000
04:44 23.1 18.2 74 1018.6 0.0000 0.0000
04:53 23.1 18.2 74 1018.6 0.0000 0.0000
05:04 23 18.1 74 1018.6 0.0000 0.0000
05:14 22.9 18.2 75 1018.5 0.0000 0.0000
05:24 22.8 18.1 75 1018.5 0.0000 0.0000
05:35 22.6 17.9 75 1018.6 0.0000 0.0000
05:45 22.5 18.1 76 1018.7 0.0000 0.0000
05:54 22.5 18.1 76 1018.6 0.0000 0.0000
06:05 22.5 18.1 76 1018.6 0.0000 0.0000
06:15 22.4 18 76 1018.5 0.0000 0.0000
06:25 22.4 18 76 1018.5 0.0000 0.0000
06:35 22.4 18 76 1018.5 0.0000 0.0000
06:45 22.4 18 76 1018.5 0.0000 0.0000
06:55 22.3 17.9 76 1018.4 0.0000 0.0000
07:05 22.2 18 77 1018.6 0.0000 0.0000
07:16 22.3 18.1 77 1018.8 0.0000 0.0000
07:25 22.3 17.9 76 1018.7 0.0000 0.0000
07:35 22.2 18 77 1018.6 0.0000 0.0000
07:46 22.1 17.9 77 1018.4 0.0000 0.0000
07:56 22.1 17.7 76 1018.4 0.0000 0.0000
08:06 22.3 17.9 76 1018.6 0.0000 0.0000
08:15 22.5 17.8 75 1018.5 0.0000 0.0000
08:26 22.7 17.8 74 1018.8 0.0000 0.0000
08:36 22.7 18.3 76 1018.8 0.0000 0.0000
08:46 22.7 18.3 76 1018.9 0.0000 0.0000
08:56 22.8 18.4 76 1019 0.0000 0.0000
09:06 23.1 18.2 74 1019 0.0000 0.0000
09:16 23.3 18 72 1018.9 0.0000 0.0000
09:26 23.7 18.4 72 1019 0.0000 0.0000
09:37 24 18.6 72 1019.1 0.0000 0.0000
09:46 24.4 18.6 70 1019 0.0000 0.0000
09:56 25 18.9 69 1019 0.0000 0.0000
10:06 25.2 18.6 67 1019.2 0.0000 0.0000
10:17 25.7 19.1 67 1019.1 0.0000 0.0000
10:28 26.3 18.9 64 1019 0.0000 0.0000
10:38 27 19.1 62 1019 0.0000 0.0000
10:47 27.2 18.8 60 1019 0.0000 0.0000
10:58 27.4 18.1 57 1018.9 0.0000 0.0000
11:08 27.5 18.5 58 1019 0.0000 0.0000
11:18 27.5 18.8 59 1018.9 0.0000 0.0000
11:28 27.6 19.1 60 1018.8 0.0000 0.0000
11:38 27.5 19.3 61 1018.8 0.0000 0.0000
11:48 27.3 18.9 60 1018.7 0.0000 0.0000
11:58 27.2 19 61 1018.8 0.0000 0.0000
12:19 27 19.1 62 1018.6 0.0000 0.0000
12:29 26.9 19.3 63 1018.6 0.0000 0.0000
12:39 26.8 19.2 63 1018.4 0.0000 0.0000
12:59 26.9 19.8 65 1018 0.0000 0.0000
13:09 27 19.9 65 1018 0.0000 0.0000
13:19 27.1 20 65 1017.6 0.0000 0.0000
13:41 27.5 19.8 63 1017.6 0.0000 0.0000
13:50 27.8 19.6 61 1017.3 0.0000 0.0000
14:01 27.9 19.2 59 1018.1 0.0000 0.0000
14:21 28 19 58 1018.3 0.0000 0.0000
14:31 28 18.4 56 1017.9 0.0000 0.0000
14:41 28 17.5 53 1017.6 0.0000 0.0000
15:01 28.3 17.8 53 1017.7 0.0000 0.0000
15:11 28.2 17.7 53 1017.6 0.0000 0.0000
15:22 28.3 17.5 52 1017.7 0.0000 0.0000
15:31 28.4 17.3 51 1017.7 0.0000 0.0000
15:52 28.7 17.6 51 1017.3 0.0000 0.0000
16:02 29.1 17.3 49 1017.2 0.0000 0.0000
16:12 29.4 17.9 50 1017.2 0.0000 0.0000
16:22 29.5 17.7 49 1017 0.0000 0.0000
16:42 29.6 17.8 49 1017 0.0000 0.0000
16:52 29.6 17.1 47 1016.9 0.0000 0.0000
17:02 29.6 17.4 48 1016.9 0.0000 0.0000
17:12 29.7 17.5 48 1016.8 0.0000 0.0000
17:22 29.6 17.1 47 1016.8 0.0000 0.0000
17:32 29.6 17.4 48 1016.7 0.0000 0.0000
17:43 29.5 17.3 48 1016.4 0.0000 0.0000
17:52 29.4 17.6 49 1016.4 0.0000 0.0000
18:02 29.2 17.7 50 1016.3 0.0000 0.0000
18:13 29.1 17.9 51 1016.2 0.0000 0.0000
18:23 29 17.8 51 1016.2 0.0000 0.0000
18:33 28.8 17.7 51 1016 0.0000 0.0000
18:42 28.7 17.9 52 1016.1 0.0000 0.0000
18:53 28.6 17.8 52 1016 0.0000 0.0000
19:03 28.4 17.6 52 1016.2 0.0000 0.0000
19:13 28.3 17.8 53 1016.2 0.0000 0.0000
19:23 28.2 17.7 53 1016.2 0.0000 0.0000
19:33 28 17.8 54 1016.3 0.0000 0.0000
19:43 27.8 17.6 54 1016.4 0.0000 0.0000
19:53 27.7 17.8 55 1016.5 0.0000 0.0000
20:04 27.5 17.7 55 1016.5 0.0000 0.0000
20:13 27.3 17.5 55 1016.5 0.0000 0.0000
20:23 27.1 17.3 55 1016.4 0.0000 0.0000
20:34 26.9 17.1 55 1016.4 0.0000 0.0000
20:44 26.6 16.8 55 1016.2 0.0000 0.0000
20:53 26.4 16.6 55 1016.1 0.0000 0.0000
21:03 26.1 16.9 57 1016.2 0.0000 0.0000
21:14 25.9 17 58 1016.5 0.0000 0.0000
21:24 25.7 16.8 58 1017.2 0.0000 0.0000
21:34 25.5 16.9 59 1017.2 0.0000 0.0000
21:44 25.3 17 60 1016.9 0.0000 0.0000
21:54 25.1 17.1 61 1017.2 0.0000 0.0000
22:04 24.9 17.1 62 1017.2 0.0000 0.0000
22:14 24.7 16.9 62 1017.1 0.0000 0.0000
22:25 24.6 17.1 63 1017.1 0.0000 0.0000
22:34 24.4 16.9 63 1017 0.0000 0.0000
22:44 24.2 17 64 1017 0.0000 0.0000
22:55 23.9 16.9 65 1016.8 0.0000 0.0000
23:05 23.6 17.1 67 1017 0.0000 0.0000
23:15 23.4 17.2 68 1016.8 0.0000 0.0000
23:24 23.2 17.2 69 1016.7 0.0000 0.0000
23:35 23 17.2 70 1016.8 0.0000 0.0000
23:45 22.9 17.1 70 1016.7 0.0000 0.0000
23:55 22.9 17.4 71 1016.6 0.0000

DAY STATISTIC

2020-08-09
TEMPERATURE
AVERAGE
25.5
HIGH
29.7
17:12
LOW
22.1
07:46
PRESSURE
AVERAGE
1017.9
HIGH
1019.2
10:06
LOW
1016.0
18:33
DEWPOINT
AVERAGE
18.0
HIGH
20.0
13:19
LOW
16.6
20:53
HUMIDITY
AVERAGE
64
HIGH
77
07:05
LOW
47
16:52
PRECIPITATION
RAIN HOUR
0.0
RAIN DAY
0.0
TEMPERATURE (°C)
LOW
22.1
HIGH
29.7
AVERAGE
25.5
PRESSURE (hpa)
LOW
1016.0
HIGH
1019.2
AVERAGE
1017.9
DEVICE